City Of Port Allen — WDD9053 — position and weather

sailwx.info

Track history (hours):
 
Tides and Currents Weather Stations Pressure Air Temp Water Temp Dewpoint Dewpoint Depression Visibility Wind Speed Wind Dir Waves Ship Positions

City Of Port Allen

Owner: Ingram Barge Company LLC, Nashville, TN. More information available from US FCC via Universal Licensing System and Coast Guard Vessel Documentation Center.

Last reported at 2018-Sep-25 22:07 UTC. Time now 2018-Sep-25 22:41 UTC.
Position N 29°26' W 094°43'.

Length 23 m.

Type: Towing. MMSI: 367306270.

Date/timePositionNaut miles runAvg speedWind from/ knotsBaromVisibWave heightAir tempDewpointWater temp
2018-Sep-25 22:07N 29°26' W 094°43'0 2.6
2018-Sep-25 22:02N 29°26' W 094°43'0 0.5
2018-Sep-25 21:59N 29°26' W 094°43'0 0.2
2018-Sep-25 21:25N 29°26' W 094°43'1 1.4
2018-Sep-25 20:51N 29°25' W 094°44'2 4.2
2018-Sep-25 20:27N 29°24' W 094°45'2 5.1
2018-Sep-25 20:03N 29°23' W 094°47'0 6.6
2018-Sep-25 20:00N 29°22' W 094°47'3 6.5
2018-Sep-25 19:30N 29°25' W 094°50'5 7.8
2018-Sep-25 18:55N 29°29' W 094°52'3 7.5
2018-Sep-25 18:30N 29°32' W 094°54'3 6.7
2018-Sep-25 18:03N 29°34' W 094°55'0 6.6
2018-Sep-25 18:00N 29°34' W 094°56'3 6.4
2018-Sep-25 17:30N 29°37' W 094°57'3 6.5
2018-Sep-25 17:03N 29°40' W 094°59'0 6.7
2018-Sep-25 17:00N 29°40' W 094°59'3 6.2
2018-Sep-25 16:30N 29°42' W 095°01'3 6.2
2018-Sep-25 16:03N 29°44' W 095°04'0 7.9
2018-Sep-25 16:00N 29°45' W 095°04'2 2.0
2018-Sep-25 14:54N 29°47' W 095°05'6 0.9
2018-Sep-25 08:42N 29°45' W 095°11'0 0.0
2018-Sep-25 08:12N 29°45' W 095°11'0 0.0
2018-Sep-25 08:02N 29°45' W 095°11'0 0.1
2018-Sep-25 07:56N 29°45' W 095°11'0 0.0
2018-Sep-25 07:30N 29°45' W 095°11'0 0.0
2018-Sep-25 07:03N 29°45' W 095°11'0 0.1
2018-Sep-25 06:58N 29°45' W 095°11'0 0.0
2018-Sep-25 06:30N 29°45' W 095°11'0 0.0
2018-Sep-25 06:03N 29°45' W 095°11'0 0.1
2018-Sep-25 05:58N 29°45' W 095°11'0 0.0
2018-Sep-25 05:30N 29°45' W 095°11'0 0.0
2018-Sep-25 05:01N 29°45' W 095°11'0 0.0
2018-Sep-25 05:00N 29°45' W 095°11'0 0.0
2018-Sep-25 04:30N 29°45' W 095°11'0 0.0
2018-Sep-25 04:01N 29°45' W 095°11'0 0.0
2018-Sep-25 03:59N 29°45' W 095°11'0 0.0
2018-Sep-25 03:30N 29°45' W 095°11'6 0.5
2018-Sep-24 16:31N 29°47' W 095°05'0 0.3
2018-Sep-24 16:30N 29°47' W 095°05'0 0.0
2018-Sep-24 16:03N 29°47' W 095°05'0 0.1
2018-Sep-24 16:00N 29°47' W 095°05'0 0.1
2018-Sep-24 14:28N 29°47' W 095°04'0 0.2
2018-Sep-24 13:57N 29°47' W 095°04'0 0.1
2018-Sep-24 13:29N 29°47' W 095°05'0 0.2
2018-Sep-24 13:03N 29°47' W 095°05'0 3.3
2018-Sep-24 13:00N 29°47' W 095°05'3 3.9
2018-Sep-24 12:17N 29°44' W 095°03'1 4.8
2018-Sep-24 12:00N 29°44' W 095°02'2 4.3
2018-Sep-24 11:30N 29°42' W 095°00'2 4.7
2018-Sep-24 11:03N 29°40' W 094°59'0 4.8
2018-Sep-24 11:00N 29°40' W 094°59'3 5.0
2018-Sep-24 10:30N 29°38' W 094°58'2 5.0
2018-Sep-24 10:03N 29°36' W 094°57'0 5.2
2018-Sep-24 10:00N 29°36' W 094°56'3 5.3
2018-Sep-24 09:30N 29°33' W 094°55'2 5.3
2018-Sep-24 09:03N 29°31' W 094°53'0 5.2
2018-Sep-24 09:00N 29°31' W 094°53'3 5.0
2018-Sep-24 08:30N 29°29' W 094°52'2 5.0
2018-Sep-24 08:02N 29°27' W 094°50'0 5.0
2018-Sep-24 08:00N 29°27' W 094°50'2 4.8
2018-Sep-24 07:30N 29°25' W 094°49'2 4.6
2018-Sep-24 07:03N 29°23' W 094°48'0 4.4
2018-Sep-24 07:00N 29°23' W 094°48'3 3.5
2018-Sep-24 06:13N 29°24' W 094°45'1 1.8
2018-Sep-24 05:47N 29°24' W 094°45'1 0.1
2018-Sep-24 01:46N 29°25' W 094°44'1 5.0
2018-Sep-24 01:29N 29°24' W 094°45'1 2.0
2018-Sep-24 01:02N 29°23' W 094°46'0 0.0
2018-Sep-24 00:59N 29°23' W 094°46'0 0.0
2018-Sep-24 00:30N 29°23' W 094°46'19 3.2
2018-Sep-23 18:29N 29°34' W 094°27'2 4.8
2018-Sep-23 18:03N 29°34' W 094°25'1 4.6
2018-Sep-23 17:54N 29°35' W 094°25'1 3.6
2018-Sep-23 17:30N 29°36' W 094°24'1 3.0
2018-Sep-23 17:03N 29°36' W 094°22'0 4.3
2018-Sep-23 17:00N 29°36' W 094°22'2 4.4
2018-Sep-23 16:30N 29°37' W 094°20'2 4.3
2018-Sep-23 16:03N 29°38' W 094°18'0 4.2
2018-Sep-23 16:00N 29°38' W 094°18'2 4.1
2018-Sep-23 15:30N 29°39' W 094°16'2 4.1
2018-Sep-23 15:03N 29°40' W 094°14'0 4.2
2018-Sep-23 15:00N 29°40' W 094°14'2 3.9
2018-Sep-23 14:30N 29°41' W 094°12'4 4.0
2018-Sep-23 13:30N 29°43' W 094°07'2 4.0
2018-Sep-23 13:03N 29°44' W 094°06'0 4.1
2018-Sep-23 13:00N 29°44' W 094°06'2 4.2
2018-Sep-23 12:30N 29°45' W 094°04'2 4.0
2018-Sep-23 12:03N 29°47' W 094°02'0 4.0
2018-Sep-23 12:00N 29°47' W 094°02'2 3.7
2018-Sep-23 11:30N 29°48' W 094°00'1 3.3
2018-Sep-23 11:03N 29°49' W 093°59'0 3.1
2018-Sep-23 11:00N 29°49' W 093°59'2 3.5
2018-Sep-23 10:30N 29°50' W 093°57'2 3.7
2018-Sep-23 10:03N 29°51' W 093°57'0 4.1
2018-Sep-23 10:00N 29°51' W 093°56'2 3.8
2018-Sep-23 09:30N 29°53' W 093°55'2 4.0
2018-Sep-23 09:03N 29°54' W 093°54'0 3.8
2018-Sep-23 09:00N 29°55' W 093°54'2 3.7
2018-Sep-23 08:30N 29°56' W 093°52'2 3.6
2018-Sep-23 08:03N 29°58' W 093°52'0 2.2
2018-Sep-23 08:00N 29°58' W 093°52'0 0.4
2018-Sep-23 07:30N 29°58' W 093°52'0 0.0
2018-Sep-23 07:03N 29°58' W 093°52'0 0.1
2018-Sep-23 07:00N 29°58' W 093°52'0 0.0
2018-Sep-23 06:30N 29°58' W 093°52'0 0.0
2018-Sep-23 06:03N 29°58' W 093°52'0 0.0
2018-Sep-23 06:00N 29°58' W 093°52'0 0.0
2018-Sep-23 05:30N 29°58' W 093°52'0 0.0
2018-Sep-23 05:03N 29°58' W 093°52'0 0.0
2018-Sep-23 05:00N 29°58' W 093°52'0 0.0
2018-Sep-23 04:30N 29°58' W 093°52'0 0.0
2018-Sep-23 04:03N 29°58' W 093°52'0 0.0
2018-Sep-23 04:00N 29°58' W 093°52'0 0.0
2018-Sep-23 03:30N 29°58' W 093°52'0 0.0
2018-Sep-23 03:03N 29°58' W 093°52'0 0.0
2018-Sep-23 03:00N 29°58' W 093°52'0 0.0
2018-Sep-23 02:30N 29°58' W 093°52'0 0.0
2018-Sep-23 02:03N 29°58' W 093°52'0 0.0
2018-Sep-23 02:00N 29°58' W 093°52'0 0.0
2018-Sep-23 01:30N 29°58' W 093°52'0 0.0
2018-Sep-23 01:03N 29°58' W 093°52'0 0.1
2018-Sep-23 01:00N 29°58' W 093°52'0 0.0
2018-Sep-23 00:30N 29°58' W 093°52'0 0.0
2018-Sep-23 00:03N 29°58' W 093°52'0 0.1
2018-Sep-23 00:01N 29°58' W 093°52'0 0.0
2018-Sep-22 23:30N 29°58' W 093°52'0 0.0
2018-Sep-22 23:03N 29°58' W 093°52'0 0.0
2018-Sep-22 23:00N 29°58' W 093°52'0 0.0
2018-Sep-22 22:30N 29°58' W 093°52'0 0.0
2018-Sep-22 22:03N 29°58' W 093°52'0 0.1
2018-Sep-22 22:00N 29°58' W 093°52'0 0.0
2018-Sep-22 21:30N 29°58' W 093°52'0 0.0
2018-Sep-22 21:03N 29°58' W 093°52'0 0.0
2018-Sep-22 21:00N 29°58' W 093°52'0 0.0
2018-Sep-22 20:30N 29°58' W 093°52'0 0.0
2018-Sep-22 20:03N 29°58' W 093°52'0 0.0
2018-Sep-22 20:00N 29°58' W 093°52'0 0.0
2018-Sep-22 19:30N 29°58' W 093°52'0 0.0
2018-Sep-22 19:03N 29°58' W 093°52'0 0.0
2018-Sep-22 19:00N 29°58' W 093°52'0 0.0
2018-Sep-22 18:30N 29°58' W 093°52'0 0.0
2018-Sep-22 18:03N 29°58' W 093°52'0 0.1
2018-Sep-22 18:00N 29°58' W 093°52'0 0.0
2018-Sep-22 17:30N 29°58' W 093°52'0 0.0
2018-Sep-22 17:03N 29°58' W 093°52'0 0.0
2018-Sep-22 17:00N 29°58' W 093°52'0 0.0
2018-Sep-22 16:30N 29°58' W 093°52'0 0.0
2018-Sep-22 16:03N 29°58' W 093°52'0 0.1
2018-Sep-22 16:00N 29°58' W 093°52'0 0.0
2018-Sep-22 15:30N 29°58' W 093°52'0 0.0
2018-Sep-22 15:03N 29°58' W 093°52'0 0.0
2018-Sep-22 15:00N 29°58' W 093°52'0 0.0
2018-Sep-22 14:30N 29°58' W 093°52'0 0.0
2018-Sep-22 14:00N 29°58' W 093°52'0 0.0
2018-Sep-22 13:30N 29°58' W 093°52'0 0.0
2018-Sep-22 13:03N 29°58' W 093°52'0 0.0
2018-Sep-22 13:01N 29°58' W 093°52'0 0.0
2018-Sep-22 12:30N 29°58' W 093°52'0 0.0
2018-Sep-22 12:03N 29°58' W 093°52'0 0.0
2018-Sep-22 12:00N 29°58' W 093°52'0 0.0
2018-Sep-22 11:30N 29°58' W 093°52'0 0.0
2018-Sep-22 11:03N 29°58' W 093°52'0 0.0
2018-Sep-22 11:00N 29°58' W 093°52'0 0.0
2018-Sep-22 10:30N 29°58' W 093°52'0 0.0
2018-Sep-22 10:03N 29°58' W 093°52'0 0.0
2018-Sep-22 10:00N 29°58' W 093°52'0 0.0
2018-Sep-22 09:30N 29°58' W 093°52'0 0.0
2018-Sep-22 09:03N 29°58' W 093°52'0 0.0
2018-Sep-22 09:00N 29°58' W 093°52'0 0.0
2018-Sep-22 08:30N 29°58' W 093°52'0 0.0
2018-Sep-22 08:03N 29°58' W 093°52'0 0.0
2018-Sep-22 08:00N 29°58' W 093°52'0 0.0
2018-Sep-22 07:30N 29°58' W 093°52'0 0.0
2018-Sep-22 07:03N 29°58' W 093°52'0 0.0
2018-Sep-22 07:00N 29°58' W 093°52'0 0.0
2018-Sep-22 06:30N 29°58' W 093°52'0 0.0
2018-Sep-22 06:03N 29°58' W 093°52'0 0.0
2018-Sep-22 06:00N 29°58' W 093°52'0 0.0
2018-Sep-22 05:30N 29°58' W 093°52'0 0.0
2018-Sep-22 05:04N 29°58' W 093°52'0 0.1
2018-Sep-22 05:00N 29°58' W 093°52'0 0.0
2018-Sep-22 04:30N 29°58' W 093°52'0 0.0
2018-Sep-22 04:03N 29°58' W 093°52'0 0.0
2018-Sep-22 04:01N 29°58' W 093°52'0 0.0
2018-Sep-22 03:30N 29°58' W 093°52'0 0.0
2018-Sep-22 03:03N 29°58' W 093°52'0 0.1
2018-Sep-22 03:00N 29°58' W 093°52'0 0.0
2018-Sep-22 02:30N 29°58' W 093°52'0 0.0
2018-Sep-22 02:03N 29°58' W 093°52'0 0.0
2018-Sep-22 02:00N 29°58' W 093°52'0 0.0
2018-Sep-22 01:30N 29°58' W 093°52'0 0.0
2018-Sep-22 01:03N 29°58' W 093°52'0 0.1
2018-Sep-22 01:00N 29°58' W 093°52'0 0.0
2018-Sep-22 00:30N 29°58' W 093°52'0 0.0
2018-Sep-22 00:03N 29°58' W 093°52'0 0.0
2018-Sep-22 00:00N 29°58' W 093°52'0 0.0
2018-Sep-21 23:30N 29°58' W 093°52'0 0.0
2018-Sep-21 23:03N 29°58' W 093°52'0 0.0
2018-Sep-21 23:00N 29°58' W 093°52'0 0.0
2018-Sep-21 22:30N 29°58' W 093°52'0 0.0
2018-Sep-21 22:03N 29°58' W 093°52'0 0.1
2018-Sep-21 22:00N 29°58' W 093°52'0 0.0
2018-Sep-21 21:30N 29°58' W 093°52'0 0.0
2018-Sep-21 21:03N 29°58' W 093°52'0 0.1
2018-Sep-21 21:00N 29°58' W 093°52'0 0.0
2018-Sep-21 20:30N 29°58' W 093°52'0 0.0
2018-Sep-21 20:03N 29°58' W 093°52'0 0.0
2018-Sep-21 20:00N 29°58' W 093°52'0 0.0
2018-Sep-21 19:30N 29°58' W 093°52'0 0.0
2018-Sep-21 19:03N 29°58' W 093°52'0 0.0
2018-Sep-21 19:01N 29°58' W 093°52'0 0.0
2018-Sep-21 18:30N 29°58' W 093°52'0 0.0
2018-Sep-21 18:03N 29°58' W 093°52'0 0.0
2018-Sep-21 18:00N 29°58' W 093°52'0 0.0
2018-Sep-21 17:30N 29°58' W 093°52'0 0.0
2018-Sep-21 17:03N 29°58' W 093°52'0 0.0
2018-Sep-21 17:00N 29°58' W 093°52'0 0.0
2018-Sep-21 16:30N 29°58' W 093°52'0 0.0
2018-Sep-21 16:03N 29°58' W 093°52'0 0.0
2018-Sep-21 16:00N 29°58' W 093°52'0 0.0
2018-Sep-21 15:30N 29°58' W 093°52'0 0.0
2018-Sep-21 15:03N 29°58' W 093°52'0 0.1
2018-Sep-21 15:00N 29°58' W 093°52'0 0.2
2018-Sep-21 14:03N 29°58' W 093°52'1 1.0
2018-Sep-21 13:30N 29°57' W 093°52'0 0.2
2018-Sep-21 13:03N 29°57' W 093°52'0 0.2
2018-Sep-21 13:00N 29°57' W 093°52'0 0.0
2018-Sep-21 12:30N 29°57' W 093°52'0 0.0
2018-Sep-21 12:03N 29°57' W 093°52'0 0.1
2018-Sep-21 11:59N 29°57' W 093°52'0 0.1
2018-Sep-21 11:30N 29°57' W 093°52'0 0.0
2018-Sep-21 11:03N 29°57' W 093°52'0 0.0
2018-Sep-21 11:00N 29°57' W 093°52'0 0.3
2018-Sep-21 10:30N 29°57' W 093°52'0 1.1
2018-Sep-21 10:03N 29°57' W 093°52'0 3.4
2018-Sep-21 10:00N 29°58' W 093°51'2 3.5
2018-Sep-21 09:30N 29°59' W 093°50'2 3.9
2018-Sep-21 09:03N 29°59' W 093°48'0 3.8
2018-Sep-21 09:01N 29°59' W 093°48'2 3.7
2018-Sep-21 08:31N 30°00' W 093°46'2 4.0
2018-Sep-21 08:03N 30°02' W 093°44'0 4.2
2018-Sep-21 08:00N 30°02' W 093°44'2 3.9
2018-Sep-21 07:30N 30°03' W 093°43'2 4.0
2018-Sep-21 07:03N 30°04' W 093°41'0 4.1
2018-Sep-21 07:00N 30°04' W 093°41'2 3.7
2018-Sep-21 06:30N 30°04' W 093°38'2 4.1
2018-Sep-21 06:04N 30°04' W 093°36'0 3.9
2018-Sep-21 06:00N 30°04' W 093°36'2 3.7
2018-Sep-21 05:30N 30°04' W 093°34'2 3.8
2018-Sep-21 05:03N 30°04' W 093°32'0 4.0
2018-Sep-21 05:00N 30°04' W 093°32'2 3.8
2018-Sep-21 04:31N 30°04' W 093°30'2 3.7
2018-Sep-21 04:03N 30°04' W 093°28'0 3.6
2018-Sep-21 04:01N 30°04' W 093°28'2 3.6
2018-Sep-21 03:31N 30°04' W 093°25'2 3.7
2018-Sep-21 03:04N 30°04' W 093°23'0 3.7
2018-Sep-21 03:01N 30°04' W 093°23'2 3.1
2018-Sep-21 02:30N 30°04' W 093°21'1 3.0
2018-Sep-21 02:04N 30°05' W 093°20'0 1.9
2018-Sep-21 02:00N 30°05' W 093°20'2 3.5
2018-Sep-21 01:30N 30°06' W 093°19'1 3.1
2018-Sep-21 01:03N 30°05' W 093°18'0 1.3
2018-Sep-21 01:01N 30°05' W 093°18'1 1.7
2018-Sep-21 00:30N 30°05' W 093°17'1 1.5
2018-Sep-21 00:03N 30°04' W 093°16'0 0.7
2018-Sep-21 00:00N 30°04' W 093°16'1 1.6
2018-Sep-20 23:30N 30°04' W 093°16'0 0.1
2018-Sep-20 23:04N 30°03' W 093°16'0 0.1
2018-Sep-20 23:01N 30°03' W 093°16'0 0.0
2018-Sep-20 22:30N 30°03' W 093°16'0 0.1
2018-Sep-20 22:03N 30°03' W 093°16'0 0.0
2018-Sep-20 22:00N 30°03' W 093°16'0 0.0
2018-Sep-20 21:31N 30°03' W 093°16'0 0.0
2018-Sep-20 21:03N 30°03' W 093°16'0 0.0
2018-Sep-20 21:00N 30°03' W 093°16'0 0.0
2018-Sep-20 20:30N 30°03' W 093°16'0 0.0
2018-Sep-20 20:03N 30°03' W 093°16'0 0.0
2018-Sep-20 20:01N 30°03' W 093°16'0 0.0
2018-Sep-20 19:30N 30°03' W 093°16'0 0.6
2018-Sep-20 19:04N 30°03' W 093°16'0 4.2
2018-Sep-20 19:01N 30°03' W 093°16'2 3.9
2018-Sep-20 18:30N 30°02' W 093°14'2 4.0
2018-Sep-20 18:03N 29°60' W 093°13'0 4.3
2018-Sep-20 18:00N 29°60' W 093°13'2 4.3
2018-Sep-20 17:28N 29°58' W 093°11'2 4.4
2018-Sep-20 17:03N 29°57' W 093°10'0 4.3
2018-Sep-20 17:00N 29°57' W 093°10'2 4.1
2018-Sep-20 16:30N 29°56' W 093°08'2 4.5
2018-Sep-20 16:03N 29°56' W 093°05'0 4.7
2018-Sep-20 16:00N 29°56' W 093°05'0 0.0
2018-Sep-20 15:30N 29°56' W 093°05'0 0.0
2018-Sep-20 15:03N 29°56' W 093°05'0 0.0
2018-Sep-20 15:00N 29°56' W 093°05'0 0.1
2018-Sep-20 14:03N 29°56' W 093°05'0 0.1
2018-Sep-20 13:57N 29°56' W 093°05'1 1.7
2018-Sep-20 13:29N 29°56' W 093°04'44 3.2
2018-Sep-19 23:56N 29°48' W 092°14'2 3.9
2018-Sep-19 23:30N 29°47' W 092°13'1 2.2
2018-Sep-19 23:03N 29°47' W 092°11'0 1.0
2018-Sep-19 23:00N 29°47' W 092°11'1 1.0
2018-Sep-19 22:30N 29°47' W 092°11'1 3.2
2018-Sep-19 22:03N 29°47' W 092°09'0 3.3
2018-Sep-19 21:57N 29°47' W 092°09'63 1.7
2018-Sep-18 09:20N 29°36' W 090°58'3 2.8
2018-Sep-18 08:25N 29°34' W 090°56'1 3.2
2018-Sep-18 08:03N 29°33' W 090°55'0 3.1
2018-Sep-18 08:00N 29°33' W 090°55'2 3.2
2018-Sep-18 07:29N 29°32' W 090°53'2 3.1
2018-Sep-18 06:57N 29°32' W 090°51'2 3.3
2018-Sep-18 06:30N 29°32' W 090°49'1 3.3
2018-Sep-18 06:03N 29°32' W 090°48'0 3.3
2018-Sep-18 06:01N 29°32' W 090°47'2 3.1
2018-Sep-18 05:31N 29°32' W 090°46'1 3.3
2018-Sep-18 05:03N 29°34' W 090°45'0 3.2
2018-Sep-18 05:00N 29°34' W 090°45'2 3.1
2018-Sep-18 04:30N 29°34' W 090°43'2 3.6
2018-Sep-18 04:04N 29°36' W 090°43'0 3.6
2018-Sep-18 04:01N 29°36' W 090°43'1 2.2
2018-Sep-18 03:30N 29°37' W 090°42'0 0.0
2018-Sep-18 03:03N 29°37' W 090°42'0 0.1
2018-Sep-18 03:00N 29°37' W 090°42'0 0.0
2018-Sep-18 02:30N 29°37' W 090°42'1 2.2
2018-Sep-18 02:03N 29°36' W 090°41'0 4.1
2018-Sep-18 02:00N 29°36' W 090°40'2 3.7
2018-Sep-18 01:30N 29°35' W 090°38'2 3.3
2018-Sep-18 01:02N 29°35' W 090°37'0 3.4
2018-Sep-18 01:00N 29°35' W 090°37'2 3.3
2018-Sep-18 00:30N 29°34' W 090°35'1 2.8
2018-Sep-18 00:03N 29°34' W 090°34'0 3.3
2018-Sep-18 00:00N 29°34' W 090°33'2 3.2
2018-Sep-17 23:29N 29°34' W 090°32'14 2.7
2018-Sep-17 18:13N 29°39' W 090°16'1 3.1
2018-Sep-17 17:47N 29°39' W 090°15'1 3.1
2018-Sep-17 17:30N 29°39' W 090°14'1 3.0
2018-Sep-17 17:00N 29°40' W 090°12'10 3.0
2018-Sep-17 13:33N 29°47' W 090°04'0 3.4
2018-Sep-17 13:25N 29°48' W 090°04'1 3.2
2018-Sep-17 13:03N 29°49' W 090°04'0 3.3
2018-Sep-17 13:00N 29°49' W 090°04'1 2.2
2018-Sep-17 12:30N 29°50' W 090°03'0 0.2
2018-Sep-17 10:36N 29°50' W 090°03'0 2.8
2018-Sep-17 10:30N 29°50' W 090°03'0 0.1
2018-Sep-17 09:59N 29°50' W 090°03'1 1.3
2018-Sep-17 09:29N 29°50' W 090°02'1 2.6
2018-Sep-17 08:59N 29°51' W 090°01'1 2.7
2018-Sep-17 08:30N 29°52' W 090°01'2 2.9
2018-Sep-17 07:57N 29°54' W 089°60'2 3.0
2018-Sep-17 07:25N 29°55' W 089°58'1 0.8
2018-Sep-17 06:43N 29°55' W 089°58'0 1.3
2018-Sep-17 06:29N 29°55' W 089°58'0 0.7
2018-Sep-17 06:04N 29°55' W 089°57'0 0.0
2018-Sep-17 06:00N 29°55' W 089°57'0 0.0
2018-Sep-17 05:31N 29°55' W 089°57'0 0.0
2018-Sep-17 05:03N 29°55' W 089°57'0 0.1
2018-Sep-17 05:00N 29°55' W 089°57'0 0.0
2018-Sep-17 04:30N 29°55' W 089°57'0 0.0
2018-Sep-17 04:03N 29°55' W 089°57'0 0.1
2018-Sep-17 04:00N 29°55' W 089°57'0 0.0
2018-Sep-17 03:30N 29°55' W 089°57'0 0.4
2018-Sep-17 03:03N 29°55' W 089°57'1 4.3
2018-Sep-17 02:49N 29°56' W 089°59'1 3.7
2018-Sep-17 02:30N 29°56' W 089°60'3 6.2
2018-Sep-17 02:03N 29°57' W 090°03'0 5.5
2018-Sep-17 02:00N 29°58' W 090°03'3 5.2
2018-Sep-17 01:31N 29°55' W 090°04'3 5.9
2018-Sep-17 01:03N 29°54' W 090°07'0 4.5
2018-Sep-17 01:00N 29°55' W 090°07'2 4.4
2018-Sep-17 00:30N 29°56' W 090°08'1 2.5
2018-Sep-17 00:03N 29°57' W 090°10'0 0.4
2018-Sep-17 00:01N 29°57' W 090°10'0 0.1
2018-Sep-16 23:29N 29°57' W 090°10'0 0.1
2018-Sep-16 23:03N 29°57' W 090°10'0 0.7
2018-Sep-16 23:00N 29°57' W 090°10'0 0.0
2018-Sep-16 22:30N 29°57' W 090°10'0 0.0
2018-Sep-16 22:02N 29°57' W 090°10'0 0.0
2018-Sep-16 22:00N 29°57' W 090°10'0 0.0
2018-Sep-16 21:27N 29°57' W 090°10'0 0.0
2018-Sep-16 21:00N 29°57' W 090°10'0 0.6
2018-Sep-16 20:30N 29°57' W 090°10'2 4.8
2018-Sep-16 20:03N 29°55' W 090°12'0 4.8
2018-Sep-16 20:01N 29°55' W 090°12'3 5.3
2018-Sep-16 19:31N 29°58' W 090°14'3 5.7
2018-Sep-16 19:03N 29°58' W 090°17'0 5.9
2018-Sep-16 18:59N 29°58' W 090°17'5 0.4
2018-Sep-16 07:55N 29°57' W 090°23'6 2.9
2018-Sep-16 05:55N 29°58' W 090°16'2 4.0
2018-Sep-16 05:29N 29°58' W 090°14'2 4.4
2018-Sep-16 05:03N 29°56' W 090°13'0 4.3
2018-Sep-16 05:01N 29°56' W 090°13'2 3.0
2018-Sep-16 04:30N 29°56' W 090°11'2 3.3
2018-Sep-16 04:02N 29°57' W 090°10'0 2.4
2018-Sep-16 04:00N 29°57' W 090°10'0 0.1
2018-Sep-16 03:27N 29°57' W 090°10'0 0.0
2018-Sep-16 03:03N 29°57' W 090°10'0 0.4
2018-Sep-16 03:00N 29°57' W 090°10'0 0.1
2018-Sep-16 02:31N 29°57' W 090°10'0 0.0
2018-Sep-16 02:03N 29°57' W 090°10'0 0.0
2018-Sep-16 02:00N 29°57' W 090°10'0 0.0
2018-Sep-16 01:30N 29°57' W 090°10'0 0.0
2018-Sep-16 01:03N 29°57' W 090°10'0 0.0
2018-Sep-16 01:01N 29°57' W 090°10'0 0.0
2018-Sep-16 00:31N 29°57' W 090°10'1 2.1
2018-Sep-16 00:02N 29°57' W 090°09'0 3.7
2018-Sep-16 00:01N 29°57' W 090°09'2 3.7
2018-Sep-15 23:31N 29°55' W 090°08'2 4.2
2018-Sep-15 23:03N 29°55' W 090°06'0 4.2
2018-Sep-15 23:00N 29°55' W 090°06'2 4.1
2018-Sep-15 22:30N 29°55' W 090°04'  
Track history (hours):
 
Tides and Currents Weather Stations Pressure Air Temp Water Temp Dewpoint Dewpoint Depression Visibility Wind Speed Wind Dir Waves Ship Positions

City Of Port Allen

Owner: Ingram Barge Company LLC, Nashville, TN. More information available from US FCC via Universal Licensing System and Coast Guard Vessel Documentation Center.

Last reported at 2018-Sep-25 22:07 UTC. Time now 2018-Sep-25 22:41 UTC.
Position N 29°26' W 094°43'.

Length 23 m.

Type: Towing. MMSI: 367306270.

Date/timePositionNaut miles runAvg speedWind from/ knotsBaromVisibWave heightAir tempDewpointWater temp
2018-Sep-25 22:07N 29°26' W 094°43'0 2.6
2018-Sep-25 22:02N 29°26' W 094°43'0 0.5
2018-Sep-25 21:59N 29°26' W 094°43'0 0.2
2018-Sep-25 21:25N 29°26' W 094°43'1 1.4
2018-Sep-25 20:51N 29°25' W 094°44'2 4.2
2018-Sep-25 20:27N 29°24' W 094°45'2 5.1
2018-Sep-25 20:03N 29°23' W 094°47'0 6.6
2018-Sep-25 20:00N 29°22' W 094°47'3 6.5
2018-Sep-25 19:30N 29°25' W 094°50'5 7.8
2018-Sep-25 18:55N 29°29' W 094°52'3 7.5
2018-Sep-25 18:30N 29°32' W 094°54'3 6.7
2018-Sep-25 18:03N 29°34' W 094°55'0 6.6
2018-Sep-25 18:00N 29°34' W 094°56'3 6.4
2018-Sep-25 17:30N 29°37' W 094°57'3 6.5
2018-Sep-25 17:03N 29°40' W 094°59'0 6.7
2018-Sep-25 17:00N 29°40' W 094°59'3 6.2
2018-Sep-25 16:30N 29°42' W 095°01'3 6.2
2018-Sep-25 16:03N 29°44' W 095°04'0 7.9
2018-Sep-25 16:00N 29°45' W 095°04'2 2.0
2018-Sep-25 14:54N 29°47' W 095°05'6 0.9
2018-Sep-25 08:42N 29°45' W 095°11'0 0.0
2018-Sep-25 08:12N 29°45' W 095°11'0 0.0
2018-Sep-25 08:02N 29°45' W 095°11'0 0.1
2018-Sep-25 07:56N 29°45' W 095°11'0 0.0
2018-Sep-25 07:30N 29°45' W 095°11'0 0.0
2018-Sep-25 07:03N 29°45' W 095°11'0 0.1
2018-Sep-25 06:58N 29°45' W 095°11'0 0.0
2018-Sep-25 06:30N 29°45' W 095°11'0 0.0
2018-Sep-25 06:03N 29°45' W 095°11'0 0.1
2018-Sep-25 05:58N 29°45' W 095°11'0 0.0
2018-Sep-25 05:30N 29°45' W 095°11'0 0.0
2018-Sep-25 05:01N 29°45' W 095°11'0 0.0
2018-Sep-25 05:00N 29°45' W 095°11'0 0.0
2018-Sep-25 04:30N 29°45' W 095°11'0 0.0
2018-Sep-25 04:01N 29°45' W 095°11'0 0.0
2018-Sep-25 03:59N 29°45' W 095°11'0 0.0
2018-Sep-25 03:30N 29°45' W 095°11'6 0.5
2018-Sep-24 16:31N 29°47' W 095°05'0 0.3
2018-Sep-24 16:30N 29°47' W 095°05'0 0.0
2018-Sep-24 16:03N 29°47' W 095°05'0 0.1
2018-Sep-24 16:00N 29°47' W 095°05'0 0.1
2018-Sep-24 14:28N 29°47' W 095°04'0 0.2
2018-Sep-24 13:57N 29°47' W 095°04'0 0.1
2018-Sep-24 13:29N 29°47' W 095°05'0 0.2
2018-Sep-24 13:03N 29°47' W 095°05'0 3.3
2018-Sep-24 13:00N 29°47' W 095°05'3 3.9
2018-Sep-24 12:17N 29°44' W 095°03'1 4.8
2018-Sep-24 12:00N 29°44' W 095°02'2 4.3
2018-Sep-24 11:30N 29°42' W 095°00'2 4.7
2018-Sep-24 11:03N 29°40' W 094°59'0 4.8
2018-Sep-24 11:00N 29°40' W 094°59'3 5.0
2018-Sep-24 10:30N 29°38' W 094°58'2 5.0
2018-Sep-24 10:03N 29°36' W 094°57'0 5.2
2018-Sep-24 10:00N 29°36' W 094°56'3 5.3
2018-Sep-24 09:30N 29°33' W 094°55'2 5.3
2018-Sep-24 09:03N 29°31' W 094°53'0 5.2
2018-Sep-24 09:00N 29°31' W 094°53'3 5.0
2018-Sep-24 08:30N 29°29' W 094°52'2 5.0
2018-Sep-24 08:02N 29°27' W 094°50'0 5.0
2018-Sep-24 08:00N 29°27' W 094°50'2 4.8
2018-Sep-24 07:30N 29°25' W 094°49'2 4.6
2018-Sep-24 07:03N 29°23' W 094°48'0 4.4
2018-Sep-24 07:00N 29°23' W 094°48'3 3.5
2018-Sep-24 06:13N 29°24' W 094°45'1 1.8
2018-Sep-24 05:47N 29°24' W 094°45'1 0.1
2018-Sep-24 01:46N 29°25' W 094°44'1 5.0
2018-Sep-24 01:29N 29°24' W 094°45'1 2.0
2018-Sep-24 01:02N 29°23' W 094°46'0 0.0
2018-Sep-24 00:59N 29°23' W 094°46'0 0.0
2018-Sep-24 00:30N 29°23' W 094°46'19 3.2
2018-Sep-23 18:29N 29°34' W 094°27'2 4.8
2018-Sep-23 18:03N 29°34' W 094°25'1 4.6
2018-Sep-23 17:54N 29°35' W 094°25'1 3.6
2018-Sep-23 17:30N 29°36' W 094°24'1 3.0
2018-Sep-23 17:03N 29°36' W 094°22'0 4.3
2018-Sep-23 17:00N 29°36' W 094°22'2 4.4
2018-Sep-23 16:30N 29°37' W 094°20'2 4.3
2018-Sep-23 16:03N 29°38' W 094°18'0 4.2
2018-Sep-23 16:00N 29°38' W 094°18'2 4.1
2018-Sep-23 15:30N 29°39' W 094°16'2 4.1
2018-Sep-23 15:03N 29°40' W 094°14'0 4.2
2018-Sep-23 15:00N 29°40' W 094°14'2 3.9
2018-Sep-23 14:30N 29°41' W 094°12'4 4.0
2018-Sep-23 13:30N 29°43' W 094°07'2 4.0
2018-Sep-23 13:03N 29°44' W 094°06'0 4.1
2018-Sep-23 13:00N 29°44' W 094°06'2 4.2
2018-Sep-23 12:30N 29°45' W 094°04'2 4.0
2018-Sep-23 12:03N 29°47' W 094°02'0 4.0
2018-Sep-23 12:00N 29°47' W 094°02'2 3.7
2018-Sep-23 11:30N 29°48' W 094°00'1 3.3
2018-Sep-23 11:03N 29°49' W 093°59'0 3.1
2018-Sep-23 11:00N 29°49' W 093°59'2 3.5
2018-Sep-23 10:30N 29°50' W 093°57'2 3.7
2018-Sep-23 10:03N 29°51' W 093°57'0 4.1
2018-Sep-23 10:00N 29°51' W 093°56'2 3.8
2018-Sep-23 09:30N 29°53' W 093°55'2 4.0
2018-Sep-23 09:03N 29°54' W 093°54'0 3.8
2018-Sep-23 09:00N 29°55' W 093°54'2 3.7
2018-Sep-23 08:30N 29°56' W 093°52'2 3.6
2018-Sep-23 08:03N 29°58' W 093°52'0 2.2
2018-Sep-23 08:00N 29°58' W 093°52'0 0.4
2018-Sep-23 07:30N 29°58' W 093°52'0 0.0
2018-Sep-23 07:03N 29°58' W 093°52'0 0.1
2018-Sep-23 07:00N 29°58' W 093°52'0 0.0
2018-Sep-23 06:30N 29°58' W 093°52'0 0.0
2018-Sep-23 06:03N 29°58' W 093°52'0 0.0
2018-Sep-23 06:00N 29°58' W 093°52'0 0.0
2018-Sep-23 05:30N 29°58' W 093°52'0 0.0
2018-Sep-23 05:03N 29°58' W 093°52'0 0.0
2018-Sep-23 05:00N 29°58' W 093°52'0 0.0
2018-Sep-23 04:30N 29°58' W 093°52'0 0.0
2018-Sep-23 04:03N 29°58' W 093°52'0 0.0
2018-Sep-23 04:00N 29°58' W 093°52'0 0.0
2018-Sep-23 03:30N 29°58' W 093°52'0 0.0
2018-Sep-23 03:03N 29°58' W 093°52'0 0.0
2018-Sep-23 03:00N 29°58' W 093°52'0 0.0
2018-Sep-23 02:30N 29°58' W 093°52'0 0.0
2018-Sep-23 02:03N 29°58' W 093°52'0 0.0
2018-Sep-23 02:00N 29°58' W 093°52'0 0.0
2018-Sep-23 01:30N 29°58' W 093°52'0 0.0
2018-Sep-23 01:03N 29°58' W 093°52'0 0.1
2018-Sep-23 01:00N 29°58' W 093°52'0 0.0
2018-Sep-23 00:30N 29°58' W 093°52'0 0.0
2018-Sep-23 00:03N 29°58' W 093°52'0 0.1
2018-Sep-23 00:01N 29°58' W 093°52'0 0.0
2018-Sep-22 23:30N 29°58' W 093°52'0 0.0
2018-Sep-22 23:03N 29°58' W 093°52'0 0.0
2018-Sep-22 23:00N 29°58' W 093°52'0 0.0
2018-Sep-22 22:30N 29°58' W 093°52'0 0.0
2018-Sep-22 22:03N 29°58' W 093°52'0 0.1
2018-Sep-22 22:00N 29°58' W 093°52'0 0.0
2018-Sep-22 21:30N 29°58' W 093°52'0 0.0
2018-Sep-22 21:03N 29°58' W 093°52'0 0.0
2018-Sep-22 21:00N 29°58' W 093°52'0 0.0
2018-Sep-22 20:30N 29°58' W 093°52'0 0.0
2018-Sep-22 20:03N 29°58' W 093°52'0 0.0
2018-Sep-22 20:00N 29°58' W 093°52'0 0.0
2018-Sep-22 19:30N 29°58' W 093°52'0 0.0
2018-Sep-22 19:03N 29°58' W 093°52'0 0.0
2018-Sep-22 19:00N 29°58' W 093°52'0 0.0
2018-Sep-22 18:30N 29°58' W 093°52'0 0.0
2018-Sep-22 18:03N 29°58' W 093°52'0 0.1
2018-Sep-22 18:00N 29°58' W 093°52'0 0.0
2018-Sep-22 17:30N 29°58' W 093°52'0 0.0
2018-Sep-22 17:03N 29°58' W 093°52'0 0.0
2018-Sep-22 17:00N 29°58' W 093°52'0 0.0
2018-Sep-22 16:30N 29°58' W 093°52'0 0.0
2018-Sep-22 16:03N 29°58' W 093°52'0 0.1
2018-Sep-22 16:00N 29°58' W 093°52'0 0.0
2018-Sep-22 15:30N 29°58' W 093°52'0 0.0
2018-Sep-22 15:03N 29°58' W 093°52'0 0.0
2018-Sep-22 15:00N 29°58' W 093°52'0 0.0
2018-Sep-22 14:30N 29°58' W 093°52'0 0.0
2018-Sep-22 14:00N 29°58' W 093°52'0 0.0
2018-Sep-22 13:30N 29°58' W 093°52'0 0.0
2018-Sep-22 13:03N 29°58' W 093°52'0 0.0
2018-Sep-22 13:01N 29°58' W 093°52'0 0.0
2018-Sep-22 12:30N 29°58' W 093°52'0 0.0
2018-Sep-22 12:03N 29°58' W 093°52'0 0.0
2018-Sep-22 12:00N 29°58' W 093°52'0 0.0
2018-Sep-22 11:30N 29°58' W 093°52'0 0.0
2018-Sep-22 11:03N 29°58' W 093°52'0 0.0
2018-Sep-22 11:00N 29°58' W 093°52'0 0.0
2018-Sep-22 10:30N 29°58' W 093°52'0 0.0
2018-Sep-22 10:03N 29°58' W 093°52'0 0.0
2018-Sep-22 10:00N 29°58' W 093°52'0 0.0
2018-Sep-22 09:30N 29°58' W 093°52'0 0.0
2018-Sep-22 09:03N 29°58' W 093°52'0 0.0
2018-Sep-22 09:00N 29°58' W 093°52'0 0.0
2018-Sep-22 08:30N 29°58' W 093°52'0 0.0
2018-Sep-22 08:03N 29°58' W 093°52'0 0.0
2018-Sep-22 08:00N 29°58' W 093°52'0 0.0
2018-Sep-22 07:30N 29°58' W 093°52'0 0.0
2018-Sep-22 07:03N 29°58' W 093°52'0 0.0
2018-Sep-22 07:00N 29°58' W 093°52'0 0.0
2018-Sep-22 06:30N 29°58' W 093°52'0 0.0
2018-Sep-22 06:03N 29°58' W 093°52'0 0.0
2018-Sep-22 06:00N 29°58' W 093°52'0 0.0
2018-Sep-22 05:30N 29°58' W 093°52'0 0.0
2018-Sep-22 05:04N 29°58' W 093°52'0 0.1
2018-Sep-22 05:00N 29°58' W 093°52'0 0.0
2018-Sep-22 04:30N 29°58' W 093°52'0 0.0
2018-Sep-22 04:03N 29°58' W 093°52'0 0.0
2018-Sep-22 04:01N 29°58' W 093°52'0 0.0
2018-Sep-22 03:30N 29°58' W 093°52'0 0.0
2018-Sep-22 03:03N 29°58' W 093°52'0 0.1
2018-Sep-22 03:00N 29°58' W 093°52'0 0.0
2018-Sep-22 02:30N 29°58' W 093°52'0 0.0
2018-Sep-22 02:03N 29°58' W 093°52'0 0.0
2018-Sep-22 02:00N 29°58' W 093°52'0 0.0
2018-Sep-22 01:30N 29°58' W 093°52'0 0.0
2018-Sep-22 01:03N 29°58' W 093°52'0 0.1
2018-Sep-22 01:00N 29°58' W 093°52'0 0.0
2018-Sep-22 00:30N 29°58' W 093°52'0 0.0
2018-Sep-22 00:03N 29°58' W 093°52'0 0.0
2018-Sep-22 00:00N 29°58' W 093°52'0 0.0
2018-Sep-21 23:30N 29°58' W 093°52'0 0.0
2018-Sep-21 23:03N 29°58' W 093°52'0 0.0
2018-Sep-21 23:00N 29°58' W 093°52'0 0.0
2018-Sep-21 22:30N 29°58' W 093°52'0 0.0
2018-Sep-21 22:03N 29°58' W 093°52'0 0.1
2018-Sep-21 22:00N 29°58' W 093°52'0 0.0
2018-Sep-21 21:30N 29°58' W 093°52'0 0.0
2018-Sep-21 21:03N 29°58' W 093°52'0 0.1
2018-Sep-21 21:00N 29°58' W 093°52'0 0.0
2018-Sep-21 20:30N 29°58' W 093°52'0 0.0
2018-Sep-21 20:03N 29°58' W 093°52'0 0.0
2018-Sep-21 20:00N 29°58' W 093°52'0 0.0
2018-Sep-21 19:30N 29°58' W 093°52'0 0.0
2018-Sep-21 19:03N 29°58' W 093°52'0 0.0
2018-Sep-21 19:01N 29°58' W 093°52'0 0.0
2018-Sep-21 18:30N 29°58' W 093°52'0 0.0
2018-Sep-21 18:03N 29°58' W 093°52'0 0.0
2018-Sep-21 18:00N 29°58' W 093°52'0 0.0
2018-Sep-21 17:30N 29°58' W 093°52'0 0.0
2018-Sep-21 17:03N 29°58' W 093°52'0 0.0
2018-Sep-21 17:00N 29°58' W 093°52'0 0.0
2018-Sep-21 16:30N 29°58' W 093°52'0 0.0
2018-Sep-21 16:03N 29°58' W 093°52'0 0.0
2018-Sep-21 16:00N 29°58' W 093°52'0 0.0
2018-Sep-21 15:30N 29°58' W 093°52'0 0.0
2018-Sep-21 15:03N 29°58' W 093°52'0 0.1
2018-Sep-21 15:00N 29°58' W 093°52'0 0.2
2018-Sep-21 14:03N 29°58' W 093°52'1 1.0
2018-Sep-21 13:30N 29°57' W 093°52'0 0.2
2018-Sep-21 13:03N 29°57' W 093°52'0 0.2
2018-Sep-21 13:00N 29°57' W 093°52'0 0.0
2018-Sep-21 12:30N 29°57' W 093°52'0 0.0
2018-Sep-21 12:03N 29°57' W 093°52'0 0.1
2018-Sep-21 11:59N 29°57' W 093°52'0 0.1
2018-Sep-21 11:30N 29°57' W 093°52'0 0.0
2018-Sep-21 11:03N 29°57' W 093°52'0 0.0
2018-Sep-21 11:00N 29°57' W 093°52'0 0.3
2018-Sep-21 10:30N 29°57' W 093°52'0 1.1
2018-Sep-21 10:03N 29°57' W 093°52'0 3.4
2018-Sep-21 10:00N 29°58' W 093°51'2 3.5
2018-Sep-21 09:30N 29°59' W 093°50'2 3.9
2018-Sep-21 09:03N 29°59' W 093°48'0 3.8
2018-Sep-21 09:01N 29°59' W 093°48'2 3.7
2018-Sep-21 08:31N 30°00' W 093°46'2 4.0
2018-Sep-21 08:03N 30°02' W 093°44'0 4.2
2018-Sep-21 08:00N 30°02' W 093°44'2 3.9
2018-Sep-21 07:30N 30°03' W 093°43'2 4.0
2018-Sep-21 07:03N 30°04' W 093°41'0 4.1
2018-Sep-21 07:00N 30°04' W 093°41'2 3.7
2018-Sep-21 06:30N 30°04' W 093°38'2 4.1
2018-Sep-21 06:04N 30°04' W 093°36'0 3.9
2018-Sep-21 06:00N 30°04' W 093°36'2 3.7
2018-Sep-21 05:30N 30°04' W 093°34'2 3.8
2018-Sep-21 05:03N 30°04' W 093°32'0 4.0
2018-Sep-21 05:00N 30°04' W 093°32'2 3.8
2018-Sep-21 04:31N 30°04' W 093°30'2 3.7
2018-Sep-21 04:03N 30°04' W 093°28'0 3.6
2018-Sep-21 04:01N 30°04' W 093°28'2 3.6
2018-Sep-21 03:31N 30°04' W 093°25'2 3.7
2018-Sep-21 03:04N 30°04' W 093°23'0 3.7
2018-Sep-21 03:01N 30°04' W 093°23'2 3.1
2018-Sep-21 02:30N 30°04' W 093°21'1 3.0
2018-Sep-21 02:04N 30°05' W 093°20'0 1.9
2018-Sep-21 02:00N 30°05' W 093°20'2 3.5
2018-Sep-21 01:30N 30°06' W 093°19'1 3.1
2018-Sep-21 01:03N 30°05' W 093°18'0 1.3
2018-Sep-21 01:01N 30°05' W 093°18'1 1.7
2018-Sep-21 00:30N 30°05' W 093°17'1 1.5
2018-Sep-21 00:03N 30°04' W 093°16'0 0.7
2018-Sep-21 00:00N 30°04' W 093°16'1 1.6
2018-Sep-20 23:30N 30°04' W 093°16'0 0.1
2018-Sep-20 23:04N 30°03' W 093°16'0 0.1
2018-Sep-20 23:01N 30°03' W 093°16'0 0.0
2018-Sep-20 22:30N 30°03' W 093°16'0 0.1
2018-Sep-20 22:03N 30°03' W 093°16'0 0.0
2018-Sep-20 22:00N 30°03' W 093°16'0 0.0
2018-Sep-20 21:31N 30°03' W 093°16'0 0.0
2018-Sep-20 21:03N 30°03' W 093°16'0 0.0
2018-Sep-20 21:00N 30°03' W 093°16'0 0.0
2018-Sep-20 20:30N 30°03' W 093°16'0 0.0
2018-Sep-20 20:03N 30°03' W 093°16'0 0.0
2018-Sep-20 20:01N 30°03' W 093°16'0 0.0
2018-Sep-20 19:30N 30°03' W 093°16'0 0.6
2018-Sep-20 19:04N 30°03' W 093°16'0 4.2
2018-Sep-20 19:01N 30°03' W 093°16'2 3.9
2018-Sep-20 18:30N 30°02' W 093°14'2 4.0
2018-Sep-20 18:03N 29°60' W 093°13'0 4.3
2018-Sep-20 18:00N 29°60' W 093°13'2 4.3
2018-Sep-20 17:28N 29°58' W 093°11'2 4.4
2018-Sep-20 17:03N 29°57' W 093°10'0 4.3
2018-Sep-20 17:00N 29°57' W 093°10'2 4.1
2018-Sep-20 16:30N 29°56' W 093°08'2 4.5
2018-Sep-20 16:03N 29°56' W 093°05'0 4.7
2018-Sep-20 16:00N 29°56' W 093°05'0 0.0
2018-Sep-20 15:30N 29°56' W 093°05'0 0.0
2018-Sep-20 15:03N 29°56' W 093°05'0 0.0
2018-Sep-20 15:00N 29°56' W 093°05'0 0.1
2018-Sep-20 14:03N 29°56' W 093°05'0 0.1
2018-Sep-20 13:57N 29°56' W 093°05'1 1.7
2018-Sep-20 13:29N 29°56' W 093°04'44 3.2
2018-Sep-19 23:56N 29°48' W 092°14'2 3.9
2018-Sep-19 23:30N 29°47' W 092°13'1 2.2
2018-Sep-19 23:03N 29°47' W 092°11'0 1.0
2018-Sep-19 23:00N 29°47' W 092°11'1 1.0
2018-Sep-19 22:30N 29°47' W 092°11'1 3.2
2018-Sep-19 22:03N 29°47' W 092°09'0 3.3
2018-Sep-19 21:57N 29°47' W 092°09'63 1.7
2018-Sep-18 09:20N 29°36' W 090°58'3 2.8
2018-Sep-18 08:25N 29°34' W 090°56'1 3.2
2018-Sep-18 08:03N 29°33' W 090°55'0 3.1
2018-Sep-18 08:00N 29°33' W 090°55'2 3.2
2018-Sep-18 07:29N 29°32' W 090°53'2 3.1
2018-Sep-18 06:57N 29°32' W 090°51'2 3.3
2018-Sep-18 06:30N 29°32' W 090°49'1 3.3
2018-Sep-18 06:03N 29°32' W 090°48'0 3.3
2018-Sep-18 06:01N 29°32' W 090°47'2 3.1
2018-Sep-18 05:31N 29°32' W 090°46'1 3.3
2018-Sep-18 05:03N 29°34' W 090°45'0 3.2
2018-Sep-18 05:00N 29°34' W 090°45'2 3.1
2018-Sep-18 04:30N 29°34' W 090°43'2 3.6
2018-Sep-18 04:04N 29°36' W 090°43'0 3.6
2018-Sep-18 04:01N 29°36' W 090°43'1 2.2
2018-Sep-18 03:30N 29°37' W 090°42'0 0.0
2018-Sep-18 03:03N 29°37' W 090°42'0 0.1
2018-Sep-18 03:00N 29°37' W 090°42'0 0.0
2018-Sep-18 02:30N 29°37' W 090°42'1 2.2
2018-Sep-18 02:03N 29°36' W 090°41'0 4.1
2018-Sep-18 02:00N 29°36' W 090°40'2 3.7
2018-Sep-18 01:30N 29°35' W 090°38'2 3.3
2018-Sep-18 01:02N 29°35' W 090°37'0 3.4
2018-Sep-18 01:00N 29°35' W 090°37'2 3.3
2018-Sep-18 00:30N 29°34' W 090°35'1 2.8
2018-Sep-18 00:03N 29°34' W 090°34'0 3.3
2018-Sep-18 00:00N 29°34' W 090°33'2 3.2
2018-Sep-17 23:29N 29°34' W 090°32'14 2.7
2018-Sep-17 18:13N 29°39' W 090°16'1 3.1
2018-Sep-17 17:47N 29°39' W 090°15'1 3.1
2018-Sep-17 17:30N 29°39' W 090°14'1 3.0
2018-Sep-17 17:00N 29°40' W 090°12'10 3.0
2018-Sep-17 13:33N 29°47' W 090°04'0 3.4
2018-Sep-17 13:25N 29°48' W 090°04'1 3.2
2018-Sep-17 13:03N 29°49' W 090°04'0 3.3
2018-Sep-17 13:00N 29°49' W 090°04'1 2.2
2018-Sep-17 12:30N 29°50' W 090°03'0 0.2
2018-Sep-17 10:36N 29°50' W 090°03'0 2.8
2018-Sep-17 10:30N 29°50' W 090°03'0 0.1
2018-Sep-17 09:59N 29°50' W 090°03'1 1.3
2018-Sep-17 09:29N 29°50' W 090°02'1 2.6
2018-Sep-17 08:59N 29°51' W 090°01'1 2.7
2018-Sep-17 08:30N 29°52' W 090°01'2 2.9
2018-Sep-17 07:57N 29°54' W 089°60'2 3.0
2018-Sep-17 07:25N 29°55' W 089°58'1 0.8
2018-Sep-17 06:43N 29°55' W 089°58'0 1.3
2018-Sep-17 06:29N 29°55' W 089°58'0 0.7
2018-Sep-17 06:04N 29°55' W 089°57'0 0.0
2018-Sep-17 06:00N 29°55' W 089°57'0 0.0
2018-Sep-17 05:31N 29°55' W 089°57'0 0.0
2018-Sep-17 05:03N 29°55' W 089°57'0 0.1
2018-Sep-17 05:00N 29°55' W 089°57'0 0.0
2018-Sep-17 04:30N 29°55' W 089°57'0 0.0
2018-Sep-17 04:03N 29°55' W 089°57'0 0.1
2018-Sep-17 04:00N 29°55' W 089°57'0 0.0
2018-Sep-17 03:30N 29°55' W 089°57'0 0.4
2018-Sep-17 03:03N 29°55' W 089°57'1 4.3
2018-Sep-17 02:49N 29°56' W 089°59'1 3.7
2018-Sep-17 02:30N 29°56' W 089°60'3 6.2
2018-Sep-17 02:03N 29°57' W 090°03'0 5.5
2018-Sep-17 02:00N 29°58' W 090°03'3 5.2
2018-Sep-17 01:31N 29°55' W 090°04'3 5.9
2018-Sep-17 01:03N 29°54' W 090°07'0 4.5
2018-Sep-17 01:00N 29°55' W 090°07'2 4.4
2018-Sep-17 00:30N 29°56' W 090°08'1 2.5
2018-Sep-17 00:03N 29°57' W 090°10'0 0.4
2018-Sep-17 00:01N 29°57' W 090°10'0 0.1
2018-Sep-16 23:29N 29°57' W 090°10'0 0.1
2018-Sep-16 23:03N 29°57' W 090°10'0 0.7
2018-Sep-16 23:00N 29°57' W 090°10'0 0.0
2018-Sep-16 22:30N 29°57' W 090°10'0 0.0
2018-Sep-16 22:02N 29°57' W 090°10'0 0.0
2018-Sep-16 22:00N 29°57' W 090°10'0 0.0
2018-Sep-16 21:27N 29°57' W 090°10'0 0.0
2018-Sep-16 21:00N 29°57' W 090°10'0 0.6
2018-Sep-16 20:30N 29°57' W 090°10'2 4.8
2018-Sep-16 20:03N 29°55' W 090°12'0 4.8
2018-Sep-16 20:01N 29°55' W 090°12'3 5.3
2018-Sep-16 19:31N 29°58' W 090°14'3 5.7
2018-Sep-16 19:03N 29°58' W 090°17'0 5.9
2018-Sep-16 18:59N 29°58' W 090°17'5 0.4
2018-Sep-16 07:55N 29°57' W 090°23'6 2.9
2018-Sep-16 05:55N 29°58' W 090°16'2 4.0
2018-Sep-16 05:29N 29°58' W 090°14'2 4.4
2018-Sep-16 05:03N 29°56' W 090°13'0 4.3
2018-Sep-16 05:01N 29°56' W 090°13'2 3.0
2018-Sep-16 04:30N 29°56' W 090°11'2 3.3
2018-Sep-16 04:02N 29°57' W 090°10'0 2.4
2018-Sep-16 04:00N 29°57' W 090°10'0 0.1
2018-Sep-16 03:27N 29°57' W 090°10'0 0.0
2018-Sep-16 03:03N 29°57' W 090°10'0 0.4
2018-Sep-16 03:00N 29°57' W 090°10'0 0.1
2018-Sep-16 02:31N 29°57' W 090°10'0 0.0
2018-Sep-16 02:03N 29°57' W 090°10'0 0.0
2018-Sep-16 02:00N 29°57' W 090°10'0 0.0
2018-Sep-16 01:30N 29°57' W 090°10'0 0.0
2018-Sep-16 01:03N 29°57' W 090°10'0 0.0
2018-Sep-16 01:01N 29°57' W 090°10'0 0.0
2018-Sep-16 00:31N 29°57' W 090°10'1 2.1
2018-Sep-16 00:02N 29°57' W 090°09'0 3.7
2018-Sep-16 00:01N 29°57' W 090°09'2 3.7
2018-Sep-15 23:31N 29°55' W 090°08'2 4.2
2018-Sep-15 23:03N 29°55' W 090°06'0 4.2
2018-Sep-15 23:00N 29°55' W 090°06'2 4.1
2018-Sep-15 22:30N 29°55' W 090°04'  

Dump ship's entire track history